sensor_id;sensor_type;location;lat;lon;timestamp;P1;durP1;ratioP1;P2;durP2;ratioP2
44428;SDS011;30134;47.866;-4.222;2022-11-28T00:01:21;16.75;;;11.43;;
44428;SDS011;30134;47.866;-4.222;2022-11-28T00:03:50;17.15;;;11.05;;
44428;SDS011;30134;47.866;-4.222;2022-11-28T00:06:16;15.80;;;10.23;;
44428;SDS011;30134;47.866;-4.222;2022-11-28T00:08:43;16.67;;;10.80;;
44428;SDS011;30134;47.866;-4.222;2022-11-28T00:11:11;15.48;;;10.20;;
44428;SDS011;30134;47.866;-4.222;2022-11-28T00:13:39;14.88;;;9.93;;
44428;SDS011;30134;47.866;-4.222;2022-11-28T00:16:06;13.90;;;9.13;;
44428;SDS011;30134;47.866;-4.222;2022-11-28T00:18:33;13.57;;;9.20;;
44428;SDS011;30134;47.866;-4.222;2022-11-28T00:21:01;14.45;;;9.00;;
44428;SDS011;30134;47.866;-4.222;2022-11-28T00:23:30;16.73;;;9.68;;
44428;SDS011;30134;47.866;-4.222;2022-11-28T00:25:58;13.95;;;9.20;;
44428;SDS011;30134;47.866;-4.222;2022-11-28T00:28:26;13.90;;;8.80;;
44428;SDS011;30134;47.866;-4.222;2022-11-28T00:30:53;12.48;;;8.38;;
44428;SDS011;30134;47.866;-4.222;2022-11-28T00:33:19;11.60;;;7.90;;
44428;SDS011;30134;47.866;-4.222;2022-11-28T00:35:46;10.23;;;7.43;;
44428;SDS011;30134;47.866;-4.222;2022-11-28T00:38:12;11.82;;;7.93;;
44428;SDS011;30134;47.866;-4.222;2022-11-28T00:40:39;12.30;;;7.85;;
44428;SDS011;30134;47.866;-4.222;2022-11-28T00:43:05;11.77;;;7.18;;
44428;SDS011;30134;47.866;-4.222;2022-11-28T00:45:31;12.23;;;7.60;;
44428;SDS011;30134;47.866;-4.222;2022-11-28T00:47:57;11.00;;;7.43;;
44428;SDS011;30134;47.866;-4.222;2022-11-28T00:50:23;10.45;;;6.95;;
44428;SDS011;30134;47.866;-4.222;2022-11-28T00:52:50;10.75;;;7.30;;
44428;SDS011;30134;47.866;-4.222;2022-11-28T00:55:16;9.88;;;6.57;;
44428;SDS011;30134;47.866;-4.222;2022-11-28T00:57:42;9.82;;;6.45;;
44428;SDS011;30134;47.866;-4.222;2022-11-28T01:00:08;10.75;;;6.80;;
44428;SDS011;30134;47.866;-4.222;2022-11-28T01:02:34;10.38;;;6.28;;
44428;SDS011;30134;47.866;-4.222;2022-11-28T01:05:00;9.88;;;6.22;;
44428;SDS011;30134;47.866;-4.222;2022-11-28T01:07:27;9.23;;;5.75;;
44428;SDS011;30134;47.866;-4.222;2022-11-28T01:09:53;11.00;;;5.75;;
44428;SDS011;30134;47.866;-4.222;2022-11-28T01:12:20;9.27;;;5.80;;
44428;SDS011;30134;47.866;-4.222;2022-11-28T01:14:46;9.60;;;5.40;;
44428;SDS011;30134;47.866;-4.222;2022-11-28T01:17:12;9.18;;;5.75;;
44428;SDS011;30134;47.866;-4.222;2022-11-28T01:19:38;8.82;;;5.57;;
44428;SDS011;30134;47.866;-4.222;2022-11-28T01:22:04;9.75;;;5.72;;
44428;SDS011;30134;47.866;-4.222;2022-11-28T01:24:32;9.55;;;5.53;;
44428;SDS011;30134;47.866;-4.222;2022-11-28T01:26:58;9.40;;;5.07;;
44428;SDS011;30134;47.866;-4.222;2022-11-28T01:29:24;6.75;;;4.88;;
44428;SDS011;30134;47.866;-4.222;2022-11-28T01:31:50;9.50;;;5.15;;
44428;SDS011;30134;47.866;-4.222;2022-11-28T01:34:16;9.93;;;5.10;;
44428;SDS011;30134;47.866;-4.222;2022-11-28T01:51:58;6.40;;;3.95;;
44428;SDS011;30134;47.866;-4.222;2022-11-28T01:54:39;7.18;;;4.15;;
44428;SDS011;30134;47.866;-4.222;2022-11-28T01:57:11;7.10;;;3.88;;
44428;SDS011;30134;47.866;-4.222;2022-11-28T01:59:50;6.05;;;4.30;;
44428;SDS011;30134;47.866;-4.222;2022-11-28T02:02:34;7.95;;;4.03;;
44428;SDS011;30134;47.866;-4.222;2022-11-28T02:05:24;9.05;;;4.10;;
44428;SDS011;30134;47.866;-4.222;2022-11-28T02:07:50;6.15;;;3.85;;
44428;SDS011;30134;47.866;-4.222;2022-11-28T02:10:18;5.55;;;3.33;;
44428;SDS011;30134;47.866;-4.222;2022-11-28T02:21:19;6.82;;;3.58;;
44428;SDS011;30134;47.866;-4.222;2022-11-28T02:26:39;6.03;;;3.05;;
44428;SDS011;30134;47.866;-4.222;2022-11-28T02:29:55;5.72;;;3.28;;
44428;SDS011;30134;47.866;-4.222;2022-11-28T02:35:17;5.15;;;3.17;;
44428;SDS011;30134;47.866;-4.222;2022-11-28T02:37:59;4.55;;;2.85;;
44428;SDS011;30134;47.866;-4.222;2022-11-28T02:44:09;6.88;;;2.95;;
44428;SDS011;30134;47.866;-4.222;2022-11-28T02:46:46;5.72;;;2.67;;
44428;SDS011;30134;47.866;-4.222;2022-11-28T02:49:22;5.68;;;2.63;;
44428;SDS011;30134;47.866;-4.222;2022-11-28T02:52:02;6.50;;;2.95;;
44428;SDS011;30134;47.866;-4.222;2022-11-28T02:55:10;5.30;;;2.85;;
44428;SDS011;30134;47.866;-4.222;2022-11-28T02:57:40;5.88;;;2.85;;
44428;SDS011;30134;47.866;-4.222;2022-11-28T03:03:05;7.90;;;3.38;;
44428;SDS011;30134;47.866;-4.222;2022-11-28T03:06:01;5.28;;;3.00;;
44428;SDS011;30134;47.866;-4.222;2022-11-28T03:12:24;6.72;;;2.90;;
44428;SDS011;30134;47.866;-4.222;2022-11-28T03:18:39;4.18;;;2.10;;
44428;SDS011;30134;47.866;-4.222;2022-11-28T03:21:24;6.93;;;2.85;;
44428;SDS011;30134;47.866;-4.222;2022-11-28T03:24:54;4.07;;;2.17;;
44428;SDS011;30134;47.866;-4.222;2022-11-28T03:32:49;5.47;;;2.20;;
44428;SDS011;30134;47.866;-4.222;2022-11-28T03:35:19;4.82;;;2.08;;
44428;SDS011;30134;47.866;-4.222;2022-11-28T03:37:54;6.10;;;2.83;;
44428;SDS011;30134;47.866;-4.222;2022-11-28T03:40:32;3.55;;;2.10;;
44428;SDS011;30134;47.866;-4.222;2022-11-28T03:43:10;4.78;;;2.15;;
44428;SDS011;30134;47.866;-4.222;2022-11-28T03:45:44;4.78;;;2.22;;
44428;SDS011;30134;47.866;-4.222;2022-11-28T03:48:17;4.97;;;2.28;;
44428;SDS011;30134;47.866;-4.222;2022-11-28T03:51:15;4.93;;;2.50;;
44428;SDS011;30134;47.866;-4.222;2022-11-28T03:59:40;3.88;;;2.10;;
44428;SDS011;30134;47.866;-4.222;2022-11-28T04:02:18;6.22;;;2.03;;
44428;SDS011;30134;47.866;-4.222;2022-11-28T04:08:16;4.65;;;2.17;;
44428;SDS011;30134;47.866;-4.222;2022-11-28T04:11:24;4.53;;;1.80;;
44428;SDS011;30134;47.866;-4.222;2022-11-28T04:17:02;4.93;;;2.15;;
44428;SDS011;30134;47.866;-4.222;2022-11-28T04:19:50;4.35;;;2.03;;
44428;SDS011;30134;47.866;-4.222;2022-11-28T04:22:30;3.47;;;1.73;;
44428;SDS011;30134;47.866;-4.222;2022-11-28T04:25:03;5.97;;;2.08;;
44428;SDS011;30134;47.866;-4.222;2022-11-28T04:27:39;5.25;;;2.08;;
44428;SDS011;30134;47.866;-4.222;2022-11-28T04:30:27;3.92;;;2.00;;
44428;SDS011;30134;47.866;-4.222;2022-11-28T04:32:56;4.00;;;1.90;;
44428;SDS011;30134;47.866;-4.222;2022-11-28T04:35:34;5.22;;;2.22;;
44428;SDS011;30134;47.866;-4.222;2022-11-28T04:38:05;4.53;;;2.22;;
44428;SDS011;30134;47.866;-4.222;2022-11-28T04:40:35;4.68;;;1.90;;
44428;SDS011;30134;47.866;-4.222;2022-11-28T04:43:25;4.13;;;1.75;;
44428;SDS011;30134;47.866;-4.222;2022-11-28T04:46:00;3.03;;;1.77;;
44428;SDS011;30134;47.866;-4.222;2022-11-28T04:54:00;2.65;;;1.75;;
44428;SDS011;30134;47.866;-4.222;2022-11-28T04:56:51;5.18;;;2.15;;
44428;SDS011;30134;47.866;-4.222;2022-11-28T04:59:25;3.83;;;1.90;;
44428;SDS011;30134;47.866;-4.222;2022-11-28T05:01:54;6.47;;;1.83;;
44428;SDS011;30134;47.866;-4.222;2022-11-28T05:04:23;4.90;;;1.92;;
44428;SDS011;30134;47.866;-4.222;2022-11-28T05:06:49;4.25;;;2.08;;
44428;SDS011;30134;47.866;-4.222;2022-11-28T05:09:24;3.05;;;1.65;;
44428;SDS011;30134;47.866;-4.222;2022-11-28T05:11:50;4.30;;;2.05;;
44428;SDS011;30134;47.866;-4.222;2022-11-28T05:14:16;3.75;;;1.90;;
44428;SDS011;30134;47.866;-4.222;2022-11-28T05:16:43;6.53;;;2.03;;
44428;SDS011;30134;47.866;-4.222;2022-11-28T05:19:09;3.80;;;1.80;;
44428;SDS011;30134;47.866;-4.222;2022-11-28T05:21:35;4.75;;;1.95;;
44428;SDS011;30134;47.866;-4.222;2022-11-28T05:24:01;3.78;;;1.70;;
44428;SDS011;30134;47.866;-4.222;2022-11-28T05:26:28;4.60;;;1.70;;
44428;SDS011;30134;47.866;-4.222;2022-11-28T05:28:56;4.00;;;1.83;;
44428;SDS011;30134;47.866;-4.222;2022-11-28T05:31:23;4.40;;;1.60;;
44428;SDS011;30134;47.866;-4.222;2022-11-28T05:33:49;3.05;;;1.67;;
44428;SDS011;30134;47.866;-4.222;2022-11-28T05:36:16;5.28;;;2.35;;
44428;SDS011;30134;47.866;-4.222;2022-11-28T05:38:42;3.85;;;1.70;;
44428;SDS011;30134;47.866;-4.222;2022-11-28T05:41:17;4.63;;;1.90;;
44428;SDS011;30134;47.866;-4.222;2022-11-28T05:46:18;3.85;;;1.95;;
44428;SDS011;30134;47.866;-4.222;2022-11-28T05:48:44;3.90;;;1.83;;
44428;SDS011;30134;47.866;-4.222;2022-11-28T05:51:11;3.75;;;1.70;;
44428;SDS011;30134;47.866;-4.222;2022-11-28T05:53:38;4.95;;;1.83;;
44428;SDS011;30134;47.866;-4.222;2022-11-28T05:56:05;3.78;;;1.40;;
44428;SDS011;30134;47.866;-4.222;2022-11-28T05:58:37;3.20;;;1.75;;
44428;SDS011;30134;47.866;-4.222;2022-11-28T06:15:52;5.60;;;2.20;;
44428;SDS011;30134;47.866;-4.222;2022-11-28T06:18:18;2.53;;;1.50;;
44428;SDS011;30134;47.866;-4.222;2022-11-28T06:20:44;3.92;;;1.80;;
44428;SDS011;30134;47.866;-4.222;2022-11-28T06:23:10;4.55;;;1.52;;
44428;SDS011;30134;47.866;-4.222;2022-11-28T06:25:36;4.32;;;1.92;;
44428;SDS011;30134;47.866;-4.222;2022-11-28T06:28:02;3.45;;;1.92;;
44428;SDS011;30134;47.866;-4.222;2022-11-28T06:30:29;2.90;;;1.55;;
44428;SDS011;30134;47.866;-4.222;2022-11-28T06:32:54;3.90;;;1.63;;
44428;SDS011;30134;47.866;-4.222;2022-11-28T06:35:20;5.10;;;1.85;;
44428;SDS011;30134;47.866;-4.222;2022-11-28T06:37:46;3.95;;;1.70;;
44428;SDS011;30134;47.866;-4.222;2022-11-28T06:40:12;4.28;;;1.98;;
44428;SDS011;30134;47.866;-4.222;2022-11-28T06:42:39;4.40;;;1.77;;
44428;SDS011;30134;47.866;-4.222;2022-11-28T06:45:05;3.55;;;1.65;;
44428;SDS011;30134;47.866;-4.222;2022-11-28T06:47:32;3.75;;;1.70;;
44428;SDS011;30134;47.866;-4.222;2022-11-28T06:49:58;3.42;;;2.17;;
44428;SDS011;30134;47.866;-4.222;2022-11-28T06:52:24;5.35;;;1.63;;
44428;SDS011;30134;47.866;-4.222;2022-11-28T06:54:50;3.67;;;1.77;;
44428;SDS011;30134;47.866;-4.222;2022-11-28T06:57:16;4.25;;;1.60;;
44428;SDS011;30134;47.866;-4.222;2022-11-28T06:59:42;5.05;;;1.42;;
44428;SDS011;30134;47.866;-4.222;2022-11-28T07:02:09;4.60;;;1.45;;
44428;SDS011;30134;47.866;-4.222;2022-11-28T07:04:35;4.15;;;2.13;;
44428;SDS011;30134;47.866;-4.222;2022-11-28T07:07:02;4.63;;;1.80;;
44428;SDS011;30134;47.866;-4.222;2022-11-28T07:09:28;3.95;;;1.58;;
44428;SDS011;30134;47.866;-4.222;2022-11-28T07:11:54;4.78;;;1.67;;
44428;SDS011;30134;47.866;-4.222;2022-11-28T07:14:20;4.68;;;1.67;;
44428;SDS011;30134;47.866;-4.222;2022-11-28T07:16:48;3.40;;;1.65;;
44428;SDS011;30134;47.866;-4.222;2022-11-28T07:19:14;4.63;;;1.70;;
44428;SDS011;30134;47.866;-4.222;2022-11-28T07:21:40;5.28;;;1.73;;
44428;SDS011;30134;47.866;-4.222;2022-11-28T07:24:07;3.90;;;1.30;;
44428;SDS011;30134;47.866;-4.222;2022-11-28T07:26:33;3.97;;;1.58;;
44428;SDS011;30134;47.866;-4.222;2022-11-28T07:29:02;4.75;;;1.92;;
44428;SDS011;30134;47.866;-4.222;2022-11-28T07:31:30;4.53;;;1.80;;
44428;SDS011;30134;47.866;-4.222;2022-11-28T07:33:58;4.32;;;1.80;;
44428;SDS011;30134;47.866;-4.222;2022-11-28T07:36:27;4.03;;;1.90;;
44428;SDS011;30134;47.866;-4.222;2022-11-28T07:38:59;4.13;;;1.45;;
44428;SDS011;30134;47.866;-4.222;2022-11-28T07:41:27;4.80;;;1.95;;
44428;SDS011;30134;47.866;-4.222;2022-11-28T07:43:54;3.67;;;1.73;;
44428;SDS011;30134;47.866;-4.222;2022-11-28T07:48:53;4.53;;;1.70;;
44428;SDS011;30134;47.866;-4.222;2022-11-28T07:51:21;2.83;;;1.40;;
44428;SDS011;30134;47.866;-4.222;2022-11-28T07:53:51;5.43;;;1.70;;
44428;SDS011;30134;47.866;-4.222;2022-11-28T07:56:19;4.43;;;1.73;;
44428;SDS011;30134;47.866;-4.222;2022-11-28T07:58:48;4.90;;;2.00;;
44428;SDS011;30134;47.866;-4.222;2022-11-28T08:01:16;4.30;;;1.58;;
44428;SDS011;30134;47.866;-4.222;2022-11-28T08:03:48;4.60;;;1.90;;
44428;SDS011;30134;47.866;-4.222;2022-11-28T08:06:16;4.50;;;1.92;;
44428;SDS011;30134;47.866;-4.222;2022-11-28T08:08:46;4.18;;;1.75;;
44428;SDS011;30134;47.866;-4.222;2022-11-28T08:11:14;4.97;;;2.03;;
44428;SDS011;30134;47.866;-4.222;2022-11-28T08:13:42;4.18;;;1.67;;
44428;SDS011;30134;47.866;-4.222;2022-11-28T08:16:11;4.80;;;2.25;;
44428;SDS011;30134;47.866;-4.222;2022-11-28T08:18:41;4.20;;;1.90;;
44428;SDS011;30134;47.866;-4.222;2022-11-28T08:21:09;4.22;;;1.80;;
44428;SDS011;30134;47.866;-4.222;2022-11-28T08:23:40;2.78;;;1.50;;
44428;SDS011;30134;47.866;-4.222;2022-11-28T08:26:08;4.35;;;1.80;;
44428;SDS011;30134;47.866;-4.222;2022-11-28T08:28:43;4.45;;;1.90;;
44428;SDS011;30134;47.866;-4.222;2022-11-28T08:33:51;3.53;;;1.63;;
44428;SDS011;30134;47.866;-4.222;2022-11-28T08:36:21;4.65;;;1.92;;
44428;SDS011;30134;47.866;-4.222;2022-11-28T08:38:47;4.38;;;1.67;;
44428;SDS011;30134;47.866;-4.222;2022-11-28T08:41:16;4.35;;;1.88;;
44428;SDS011;30134;47.866;-4.222;2022-11-28T08:43:45;5.72;;;1.80;;
44428;SDS011;30134;47.866;-4.222;2022-11-28T08:46:13;4.68;;;1.98;;
44428;SDS011;30134;47.866;-4.222;2022-11-28T08:51:12;5.32;;;2.20;;
44428;SDS011;30134;47.866;-4.222;2022-11-28T08:53:40;5.30;;;2.03;;
44428;SDS011;30134;47.866;-4.222;2022-11-28T08:56:08;7.25;;;2.15;;
44428;SDS011;30134;47.866;-4.222;2022-11-28T08:58:35;5.88;;;1.90;;
44428;SDS011;30134;47.866;-4.222;2022-11-28T09:01:01;7.38;;;2.70;;
44428;SDS011;30134;47.866;-4.222;2022-11-28T09:03:28;9.35;;;4.93;;
44428;SDS011;30134;47.866;-4.222;2022-11-28T09:05:58;14.82;;;8.05;;
44428;SDS011;30134;47.866;-4.222;2022-11-28T09:08:28;14.10;;;7.78;;
44428;SDS011;30134;47.866;-4.222;2022-11-28T09:10:54;15.20;;;9.00;;
44428;SDS011;30134;47.866;-4.222;2022-11-28T09:13:20;19.48;;;10.77;;
44428;SDS011;30134;47.866;-4.222;2022-11-28T09:15:46;18.98;;;11.73;;
44428;SDS011;30134;47.866;-4.222;2022-11-28T09:18:13;18.95;;;11.68;;
44428;SDS011;30134;47.866;-4.222;2022-11-28T09:20:40;20.38;;;13.38;;
44428;SDS011;30134;47.866;-4.222;2022-11-28T09:23:06;20.08;;;12.48;;
44428;SDS011;30134;47.866;-4.222;2022-11-28T09:25:34;20.55;;;13.93;;
44428;SDS011;30134;47.866;-4.222;2022-11-28T09:28:04;20.77;;;14.27;;
44428;SDS011;30134;47.866;-4.222;2022-11-28T09:30:31;20.90;;;13.93;;
44428;SDS011;30134;47.866;-4.222;2022-11-28T09:32:58;22.90;;;14.27;;
44428;SDS011;30134;47.866;-4.222;2022-11-28T09:35:24;21.05;;;13.80;;
44428;SDS011;30134;47.866;-4.222;2022-11-28T09:40:17;17.92;;;12.15;;
44428;SDS011;30134;47.866;-4.222;2022-11-28T09:42:54;17.90;;;12.55;;
44428;SDS011;30134;47.866;-4.222;2022-11-28T09:45:23;19.02;;;12.65;;
44428;SDS011;30134;47.866;-4.222;2022-11-28T09:47:54;18.73;;;12.20;;
44428;SDS011;30134;47.866;-4.222;2022-11-28T09:50:31;17.27;;;11.60;;
44428;SDS011;30134;47.866;-4.222;2022-11-28T09:56:34;16.80;;;11.52;;
44428;SDS011;30134;47.866;-4.222;2022-11-28T10:03:59;15.07;;;9.88;;
44428;SDS011;30134;47.866;-4.222;2022-11-28T10:12:26;11.82;;;8.20;;
44428;SDS011;30134;47.866;-4.222;2022-11-28T10:24:09;12.20;;;7.55;;
44428;SDS011;30134;47.866;-4.222;2022-11-28T10:26:50;11.23;;;6.82;;
44428;SDS011;30134;47.866;-4.222;2022-11-28T10:29:31;9.63;;;6.88;;
44428;SDS011;30134;47.866;-4.222;2022-11-28T10:32:15;9.75;;;6.53;;
44428;SDS011;30134;47.866;-4.222;2022-11-28T10:34:58;10.27;;;6.13;;
44428;SDS011;30134;47.866;-4.222;2022-11-28T10:37:34;10.60;;;6.20;;
44428;SDS011;30134;47.866;-4.222;2022-11-28T10:44:09;10.20;;;6.03;;
44428;SDS011;30134;47.866;-4.222;2022-11-28T10:47:06;9.10;;;5.57;;
44428;SDS011;30134;47.866;-4.222;2022-11-28T10:50:05;8.32;;;4.90;;
44428;SDS011;30134;47.866;-4.222;2022-11-28T10:52:49;8.40;;;5.20;;
44428;SDS011;30134;47.866;-4.222;2022-11-28T10:58:45;8.20;;;4.80;;
44428;SDS011;30134;47.866;-4.222;2022-11-28T11:23:33;12.48;;;6.70;;
44428;SDS011;30134;47.866;-4.222;2022-11-28T11:25:59;9.82;;;6.40;;
44428;SDS011;30134;47.866;-4.222;2022-11-28T11:31:25;12.30;;;7.00;;
44428;SDS011;30134;47.866;-4.222;2022-11-28T11:34:02;13.85;;;6.65;;
44428;SDS011;30134;47.866;-4.222;2022-11-28T11:36:32;12.88;;;7.25;;
44428;SDS011;30134;47.866;-4.222;2022-11-28T11:39:14;12.52;;;6.90;;
44428;SDS011;30134;47.866;-4.222;2022-11-28T11:44:26;10.07;;;6.60;;
44428;SDS011;30134;47.866;-4.222;2022-11-28T11:47:08;10.25;;;6.75;;
44428;SDS011;30134;47.866;-4.222;2022-11-28T11:54:56;10.82;;;6.40;;
44428;SDS011;30134;47.866;-4.222;2022-11-28T11:57:48;21.58;;;10.07;;
44428;SDS011;30134;47.866;-4.222;2022-11-28T12:00:17;13.05;;;6.82;;
44428;SDS011;30134;47.866;-4.222;2022-11-28T12:02:57;10.45;;;6.70;;
44428;SDS011;30134;47.866;-4.222;2022-11-28T12:05:34;12.38;;;6.75;;
44428;SDS011;30134;47.866;-4.222;2022-11-28T12:11:11;9.70;;;5.97;;
44428;SDS011;30134;47.866;-4.222;2022-11-28T12:13:47;9.43;;;5.75;;
44428;SDS011;30134;47.866;-4.222;2022-11-28T12:28:00;7.28;;;3.90;;
44428;SDS011;30134;47.866;-4.222;2022-11-28T12:40:16;5.32;;;3.17;;
44428;SDS011;30134;47.866;-4.222;2022-11-28T12:46:34;6.53;;;3.42;;
44428;SDS011;30134;47.866;-4.222;2022-11-28T13:00:29;5.07;;;2.60;;
44428;SDS011;30134;47.866;-4.222;2022-11-28T13:14:56;4.55;;;2.30;;
44428;SDS011;30134;47.866;-4.222;2022-11-28T13:21:02;6.65;;;2.28;;
44428;SDS011;30134;47.866;-4.222;2022-11-28T13:33:00;8.98;;;2.15;;
44428;SDS011;30134;47.866;-4.222;2022-11-28T13:35:49;4.50;;;2.10;;
44428;SDS011;30134;47.866;-4.222;2022-11-28T13:38:19;3.65;;;1.75;;
44428;SDS011;30134;47.866;-4.222;2022-11-28T13:44:12;12.63;;;2.67;;
44428;SDS011;30134;47.866;-4.222;2022-11-28T13:47:11;5.78;;;2.42;;
44428;SDS011;30134;47.866;-4.222;2022-11-28T13:55:38;7.32;;;2.92;;
44428;SDS011;30134;47.866;-4.222;2022-11-28T13:58:22;7.50;;;3.03;;
44428;SDS011;30134;47.866;-4.222;2022-11-28T14:03:48;6.50;;;3.55;;
44428;SDS011;30134;47.866;-4.222;2022-11-28T14:06:18;7.50;;;4.25;;
44428;SDS011;30134;47.866;-4.222;2022-11-28T14:25:41;8.05;;;5.25;;
44428;SDS011;30134;47.866;-4.222;2022-11-28T14:28:53;8.40;;;5.32;;
44428;SDS011;30134;47.866;-4.222;2022-11-28T14:34:09;6.80;;;4.80;;
44428;SDS011;30134;47.866;-4.222;2022-11-28T14:39:46;7.75;;;5.10;;
44428;SDS011;30134;47.866;-4.222;2022-11-28T14:44:47;6.53;;;4.65;;
44428;SDS011;30134;47.866;-4.222;2022-11-28T14:47:31;6.65;;;4.47;;
44428;SDS011;30134;47.866;-4.222;2022-11-28T14:52:40;7.07;;;4.35;;
44428;SDS011;30134;47.866;-4.222;2022-11-28T15:03:34;6.40;;;3.97;;
44428;SDS011;30134;47.866;-4.222;2022-11-28T15:06:22;5.38;;;3.63;;
44428;SDS011;30134;47.866;-4.222;2022-11-28T15:11:37;9.55;;;5.00;;
44428;SDS011;30134;47.866;-4.222;2022-11-28T15:14:28;18.80;;;11.95;;
44428;SDS011;30134;47.866;-4.222;2022-11-28T15:16:59;30.17;;;19.15;;
44428;SDS011;30134;47.866;-4.222;2022-11-28T15:19:42;32.15;;;20.90;;
44428;SDS011;30134;47.866;-4.222;2022-11-28T15:22:37;31.92;;;22.48;;
44428;SDS011;30134;47.866;-4.222;2022-11-28T15:25:19;32.65;;;22.23;;
44428;SDS011;30134;47.866;-4.222;2022-11-28T15:27:51;29.15;;;21.25;;
44428;SDS011;30134;47.866;-4.222;2022-11-28T15:30:20;32.20;;;23.30;;
44428;SDS011;30134;47.866;-4.222;2022-11-28T15:32:52;30.80;;;22.92;;
44428;SDS011;30134;47.866;-4.222;2022-11-28T15:35:24;31.35;;;23.13;;
44428;SDS011;30134;47.866;-4.222;2022-11-28T15:37:55;34.33;;;25.52;;
44428;SDS011;30134;47.866;-4.222;2022-11-28T15:40:28;35.00;;;25.48;;
44428;SDS011;30134;47.866;-4.222;2022-11-28T15:43:00;33.70;;;24.30;;
44428;SDS011;30134;47.866;-4.222;2022-11-28T15:45:29;33.78;;;25.27;;
44428;SDS011;30134;47.866;-4.222;2022-11-28T15:48:02;38.83;;;27.05;;
44428;SDS011;30134;47.866;-4.222;2022-11-28T15:50:31;37.88;;;27.08;;
44428;SDS011;30134;47.866;-4.222;2022-11-28T15:53:01;38.03;;;26.75;;
44428;SDS011;30134;47.866;-4.222;2022-11-28T15:55:38;36.03;;;27.23;;
44428;SDS011;30134;47.866;-4.222;2022-11-28T15:58:23;39.47;;;29.23;;
44428;SDS011;30134;47.866;-4.222;2022-11-28T16:01:07;39.42;;;28.90;;
44428;SDS011;30134;47.866;-4.222;2022-11-28T16:03:58;36.58;;;27.00;;
44428;SDS011;30134;47.866;-4.222;2022-11-28T16:06:33;37.78;;;25.52;;
44428;SDS011;30134;47.866;-4.222;2022-11-28T16:09:03;35.50;;;24.85;;
44428;SDS011;30134;47.866;-4.222;2022-11-28T16:11:49;32.78;;;23.35;;
44428;SDS011;30134;47.866;-4.222;2022-11-28T16:14:23;31.13;;;22.17;;
44428;SDS011;30134;47.866;-4.222;2022-11-28T16:17:01;28.02;;;20.35;;
44428;SDS011;30134;47.866;-4.222;2022-11-28T16:19:35;25.95;;;18.58;;
44428;SDS011;30134;47.866;-4.222;2022-11-28T16:22:07;23.75;;;18.42;;
44428;SDS011;30134;47.866;-4.222;2022-11-28T16:24:55;24.45;;;16.95;;
44428;SDS011;30134;47.866;-4.222;2022-11-28T16:27:35;22.00;;;15.80;;
44428;SDS011;30134;47.866;-4.222;2022-11-28T16:30:25;20.75;;;14.23;;
44428;SDS011;30134;47.866;-4.222;2022-11-28T16:36:19;16.63;;;11.88;;
44428;SDS011;30134;47.866;-4.222;2022-11-28T16:38:48;16.98;;;12.07;;
44428;SDS011;30134;47.866;-4.222;2022-11-28T16:41:24;14.77;;;10.43;;
44428;SDS011;30134;47.866;-4.222;2022-11-28T16:43:52;17.75;;;10.43;;
44428;SDS011;30134;47.866;-4.222;2022-11-28T16:46:24;12.63;;;9.27;;
44428;SDS011;30134;47.866;-4.222;2022-11-28T16:48:55;16.92;;;9.77;;
44428;SDS011;30134;47.866;-4.222;2022-11-28T16:51:27;12.32;;;8.95;;
44428;SDS011;30134;47.866;-4.222;2022-11-28T16:53:57;15.38;;;8.70;;
44428;SDS011;30134;47.866;-4.222;2022-11-28T16:56:56;11.13;;;8.30;;
44428;SDS011;30134;47.866;-4.222;2022-11-28T16:59:34;11.23;;;7.60;;
44428;SDS011;30134;47.866;-4.222;2022-11-28T17:02:01;10.65;;;7.57;;
44428;SDS011;30134;47.866;-4.222;2022-11-28T17:04:28;9.25;;;6.53;;
44428;SDS011;30134;47.866;-4.222;2022-11-28T17:06:56;10.50;;;6.90;;
44428;SDS011;30134;47.866;-4.222;2022-11-28T17:09:29;10.18;;;6.32;;
44428;SDS011;30134;47.866;-4.222;2022-11-28T17:12:02;10.93;;;6.65;;
44428;SDS011;30134;47.866;-4.222;2022-11-28T17:14:32;11.85;;;6.47;;
44428;SDS011;30134;47.866;-4.222;2022-11-28T17:16:59;13.52;;;6.50;;
44428;SDS011;30134;47.866;-4.222;2022-11-28T17:19:25;9.38;;;5.47;;
44428;SDS011;30134;47.866;-4.222;2022-11-28T17:21:52;11.93;;;5.97;;
44428;SDS011;30134;47.866;-4.222;2022-11-28T17:24:22;12.77;;;6.90;;
44428;SDS011;30134;47.866;-4.222;2022-11-28T17:26:56;16.42;;;7.13;;
44428;SDS011;30134;47.866;-4.222;2022-11-28T17:29:22;32.70;;;10.45;;
44428;SDS011;30134;47.866;-4.222;2022-11-28T17:31:49;27.92;;;9.23;;
44428;SDS011;30134;47.866;-4.222;2022-11-28T17:34:21;18.35;;;8.20;;
44428;SDS011;30134;47.866;-4.222;2022-11-28T17:36:49;17.23;;;7.88;;
44428;SDS011;30134;47.866;-4.222;2022-11-28T17:39:16;23.27;;;8.23;;
44428;SDS011;30134;47.866;-4.222;2022-11-28T17:41:44;15.00;;;7.45;;
44428;SDS011;30134;47.866;-4.222;2022-11-28T17:44:21;15.73;;;6.80;;
44428;SDS011;30134;47.866;-4.222;2022-11-28T17:46:50;13.65;;;7.47;;
44428;SDS011;30134;47.866;-4.222;2022-11-28T17:49:18;17.38;;;6.70;;
44428;SDS011;30134;47.866;-4.222;2022-11-28T17:51:45;16.90;;;7.35;;
44428;SDS011;30134;47.866;-4.222;2022-11-28T17:54:11;15.27;;;7.20;;
44428;SDS011;30134;47.866;-4.222;2022-11-28T17:56:46;15.80;;;7.15;;
44428;SDS011;30134;47.866;-4.222;2022-11-28T17:59:15;14.80;;;7.28;;
44428;SDS011;30134;47.866;-4.222;2022-11-28T18:01:44;11.35;;;6.60;;
44428;SDS011;30134;47.866;-4.222;2022-11-28T18:04:11;14.55;;;7.28;;
44428;SDS011;30134;47.866;-4.222;2022-11-28T18:06:37;15.52;;;7.30;;
44428;SDS011;30134;47.866;-4.222;2022-11-28T18:09:10;14.73;;;6.72;;
44428;SDS011;30134;47.866;-4.222;2022-11-28T18:11:38;12.38;;;6.38;;
44428;SDS011;30134;47.866;-4.222;2022-11-28T18:14:05;13.88;;;6.35;;
44428;SDS011;30134;47.866;-4.222;2022-11-28T18:16:32;13.25;;;6.60;;
44428;SDS011;30134;47.866;-4.222;2022-11-28T18:19:00;11.48;;;6.30;;
44428;SDS011;30134;47.866;-4.222;2022-11-28T18:21:27;14.45;;;6.38;;
44428;SDS011;30134;47.866;-4.222;2022-11-28T18:23:53;13.73;;;6.28;;
44428;SDS011;30134;47.866;-4.222;2022-11-28T18:26:21;12.18;;;5.55;;
44428;SDS011;30134;47.866;-4.222;2022-11-28T18:28:49;13.65;;;5.55;;
44428;SDS011;30134;47.866;-4.222;2022-11-28T18:31:20;13.50;;;6.20;;
44428;SDS011;30134;47.866;-4.222;2022-11-28T18:33:49;15.35;;;6.43;;
44428;SDS011;30134;47.866;-4.222;2022-11-28T18:36:17;10.27;;;5.18;;
44428;SDS011;30134;47.866;-4.222;2022-11-28T18:38:47;13.43;;;5.38;;
44428;SDS011;30134;47.866;-4.222;2022-11-28T18:41:15;11.00;;;5.63;;
44428;SDS011;30134;47.866;-4.222;2022-11-28T18:43:42;8.38;;;5.13;;
44428;SDS011;30134;47.866;-4.222;2022-11-28T18:46:09;12.93;;;5.75;;
44428;SDS011;30134;47.866;-4.222;2022-11-28T18:48:41;21.13;;;7.72;;
44428;SDS011;30134;47.866;-4.222;2022-11-28T18:51:15;16.58;;;6.68;;
44428;SDS011;30134;47.866;-4.222;2022-11-28T18:53:44;14.80;;;6.22;;
44428;SDS011;30134;47.866;-4.222;2022-11-28T18:56:20;18.05;;;5.95;;
44428;SDS011;30134;47.866;-4.222;2022-11-28T18:58:48;14.05;;;5.78;;
44428;SDS011;30134;47.866;-4.222;2022-11-28T19:03:55;14.02;;;5.85;;
44428;SDS011;30134;47.866;-4.222;2022-11-28T19:06:28;15.15;;;6.63;;
44428;SDS011;30134;47.866;-4.222;2022-11-28T19:08:56;10.48;;;5.65;;
44428;SDS011;30134;47.866;-4.222;2022-11-28T19:11:24;16.50;;;6.25;;
44428;SDS011;30134;47.866;-4.222;2022-11-28T19:13:52;14.73;;;5.68;;
44428;SDS011;30134;47.866;-4.222;2022-11-28T19:16:20;11.15;;;5.40;;
44428;SDS011;30134;47.866;-4.222;2022-11-28T19:18:51;11.15;;;5.25;;
44428;SDS011;30134;47.866;-4.222;2022-11-28T19:21:21;10.98;;;6.15;;
44428;SDS011;30134;47.866;-4.222;2022-11-28T19:23:50;52.60;;;35.75;;
44428;SDS011;30134;47.866;-4.222;2022-11-28T19:26:19;84.47;;;57.92;;
44428;SDS011;30134;47.866;-4.222;2022-11-28T19:28:48;105.75;;;74.10;;
44428;SDS011;30134;47.866;-4.222;2022-11-28T19:31:15;99.75;;;70.78;;
44428;SDS011;30134;47.866;-4.222;2022-11-28T19:33:53;92.90;;;66.45;;